Friday, July 20, 2018, 3:49 AM CDT
Back to Local

KLWC, Lawrence Municipal Airport

Location: Lawrence, KS, United States Lat: 39.017
Local Time: 3:49 AM CDT ( 8:49 GMT) Lon: -95.217
Time Zone: US/Central Elev: 833 ft

Show me the last for .
Show Decoded

2018-07-20 02:52 METAR KLWC 200752Z AUTO 00000KT 10SM SCT070 20/19 A2986 RMK AO2 SLP101 T02000194
                 =
2018-07-20 01:52 METAR KLWC 200652Z AUTO 02003KT 10SM CLR 20/19 A2986 RMK AO2 SLP101 T02000189 =
2018-07-20 00:52 METAR KLWC 200552Z AUTO 00000KT 10SM CLR 22/19 A2985 RMK AO2 SLP097 T02170194
                 10283 20206 403830206 50001 =
2018-07-19 23:52 METAR KLWC 200452Z AUTO 34003KT 10SM CLR 21/19 A2986 RMK AO2 SLP101 T02110194 =
2018-07-19 22:52 METAR KLWC 200352Z AUTO 23006KT 10SM CLR 22/19 A2986 RMK AO2 SLP102 T02170194 =
2018-07-19 21:52 METAR KLWC 200252Z AUTO 16003KT 10SM CLR 23/19 A2985 RMK AO2 SLP097 T02280194
                 53009 =
2018-07-19 20:52 METAR KLWC 200152Z AUTO 19004KT 10SM CLR 25/20 A2983 RMK AO2 SLP093 T02500200 =
2018-07-19 19:52 METAR KLWC 200052Z AUTO 16006KT 10SM CLR 28/22 A2982 RMK AO2 SLP088 T02780217 =
2018-07-19 18:52 METAR KLWC 192352Z AUTO 18010KT 10SM CLR 28/21 A2982 RMK AO2 SLP089 60000
                 T02830206 10383 20244 55013 =
2018-07-19 17:52 METAR KLWC 192252Z AUTO 26004KT 10SM CLR 29/19 A2980 RMK AO2 SLP083 T02940194 =
2018-07-19 16:52 METAR KLWC 192152Z AUTO 30004KT 10SM CLR 27/21 A2981 RMK AO2 PK WND 27032/2058
                 LTG DSNT SE AND S RAB02E12 SLP086 P0000 T02720206 =
2018-07-19 16:11 METAR KLWC 192111Z AUTO 31012G27KT 10SM -RA SCT060 SCT080 BKN100 24/20 A2982 RMK
                 AO2 PK WND 27032/2058 LTG DSNT SE-W RAB02 PRESFR P0000 T02440200 =
2018-07-19 15:51 METAR KLWC 192051Z AUTO 28025G51KT 6SM VCTS HZ SQ SCT065 BKN075 29/19 A2986 RMK
                 AO2 PK WND 28051/2046 LTG DSNT S-NW SLP103 T02890194 53015 =
2018-07-19 15:50 METAR KLWC 192050Z AUTO 29027G51KT 6SM VCTS HZ SQ SCT065 BKN075 29/19 A2986 RMK
                 AO2 PK WND 28051/2046 LTG DSNT S-NW PRESRR =
2018-07-19 14:52 METAR KLWC 191952Z AUTO 27008KT 10SM CLR 36/22 A2980 RMK AO2 LTG DSNT S AND SW
                 SLP079 T03560217 =
2018-07-19 13:52 METAR KLWC 191852Z AUTO 30008KT 10SM CLR 38/22 A2980 RMK AO2 SLP080 T03830217 =
2018-07-19 12:52 METAR KLWC 191752Z AUTO 32009KT 10SM CLR 37/23 A2981 RMK AO2 SLP084 T03720228
                 10372 20233 56008 =
2018-07-19 11:52 METAR KLWC 191652Z AUTO 26010G15KT 10SM CLR 36/22 A2982 RMK AO2 SLP088 T03610222
                 =
2018-07-19 10:52 METAR KLWC 191552Z AUTO 24009KT 10SM CLR 34/23 A2982 RMK AO2 SLP089 T03440233 =
2018-07-19 09:52 METAR KLWC 191452Z AUTO 22007KT 10SM CLR 32/24 A2984 RMK AO2 SLP093 T03170239
                 58011 =
2018-07-19 08:52 METAR KLWC 191352Z AUTO 23007KT 10SM CLR 29/24 A2985 RMK AO2 SLP099 T02890239 =
2018-07-19 07:52 METAR KLWC 191252Z AUTO 14003KT 9SM CLR 26/23 A2987 RMK AO2 SLP105 T02560233 =
2018-07-19 06:52 METAR KLWC 191152Z AUTO 00000KT 7SM SCT038 23/23 A2987 RMK AO2 SLP106 T02330228
                 10250 20228 55002 =
2018-07-19 05:52 METAR KLWC 191052Z AUTO 14005KT 10SM FEW070 23/23 A2985 RMK AO2 SLP099 T02330228
                 =
2018-07-19 04:52 METAR KLWC 190952Z AUTO 12004KT 10SM CLR 23/22 A2987 RMK AO2 SLP106 T02280222 =
2018-07-19 03:52 METAR KLWC 190852Z AUTO 15005KT 10SM BKN075 23/22 A2988 RMK AO2 SLP108 T02280222
                 56006 =

Support USWX by starting your Amazon purchase here.